Terminal Aerodrome Forecast
Issued by NWS

Home | Current Version | Previous Version | Text Only | Print | Product List | Glossary On
Versions: 1 2 3 4 5 6 7 8 9 10 11 12 13 14 15 16 17 18 19 20 21 22 23 24
000
FTUS41 KGYX 221720
TAFLEB
TAF
KLEB 221720Z 2218/2318 00000KT P6SM OVC030
     FM230000 00000KT 5SM -SHSN BR OVC025
     FM230900 00000KT 3SM -SHSN BR OVC015
     FM231200 08004KT 5SM -RADZ BR OVC010
     FM231400 09004KT 2SM -RADZ BR OVC006=

USA.gov is the U.S. government's official web portal to all federal, state and local government web resources and services.